Time;durP1;ratioP1;P1;durP2;ratioP2;P2;SDS_P1;SDS_P2;PMS_P1;PMS_P2;Temp;Humidity;BMP_temperature;BMP_pressure;BME280_temperature;BME280_humidity;BME280_pressure;Samples;Min_cycle;Max_cycle;Signal;HPM_P1;HPM_P2
2022/02/09 00:01:34;;;;;;;6.00;3.90;;;7.00;99.90;;;;;;4972125;28;20430;-74
2022/02/09 00:09:06;;;;;;;8.33;3.53;;;7.10;99.90;;;;;;4972054;28;20415;-74
2022/02/09 00:11:41;;;;;;;5.83;3.43;;;7.10;99.90;;;;;;4972496;28;20508;-73
2022/02/09 00:14:18;;;;;;;5.07;3.47;;;7.10;99.90;;;;;;4971743;28;20565;-74
2022/02/09 00:24:53;;;;;;;9.10;6.20;;;7.00;99.90;;;;;;4975710;28;20480;-74
2022/02/09 00:38:33;;;;;;;9.53;5.93;;;7.00;99.90;;;;;;4971234;28;20439;-74
2022/02/09 00:58:53;;;;;;;7.57;3.67;;;7.00;99.90;;;;;;4975546;28;20406;-74
2022/02/09 05:32:01;;;;;;;4.70;1.70;;;6.60;99.90;;;;;;5371340;23;20503;-75
2022/02/09 05:34:27;;;;;;;2.40;1.80;;;6.60;99.90;;;;;;4989216;28;20429;-74
2022/02/09 05:36:52;;;;;;;2.53;2.33;;;6.60;99.90;;;;;;4984753;28;20195;-74
2022/02/09 05:39:18;;;;;;;5.90;2.47;;;6.60;99.90;;;;;;4992695;28;20183;-74
2022/02/09 05:41:46;;;;;;;2.70;2.10;;;6.60;99.90;;;;;;4993786;28;20688;-74
2022/02/09 05:44:13;;;;;;;5.37;2.10;;;6.60;99.90;;;;;;4993635;28;20173;-73
2022/02/09 05:47:14;;;;;;;3.60;2.10;;;6.70;99.90;;;;;;4991968;28;20478;-75
2022/02/09 05:52:06;;;;;;;6.27;3.30;;;6.60;99.90;;;;;;4993772;28;20414;-75
2022/02/09 05:59:50;;;;;;;2.93;2.63;;;6.70;99.90;;;;;;4968057;28;20468;-74
2022/02/09 06:02:16;;;;;;;7.60;2.93;;;6.70;99.90;;;;;;4970593;28;20836;-74
2022/02/09 06:04:42;;;;;;;6.20;2.93;;;6.70;99.90;;;;;;4973243;28;21025;-74
2022/02/09 06:07:08;;;;;;;5.23;2.13;;;6.70;99.90;;;;;;4981484;28;20448;-74
2022/02/09 06:09:36;;;;;;;5.10;3.03;;;6.70;99.90;;;;;;4965230;28;20470;-74
2022/02/09 06:20:18;;;;;;;4.10;2.20;;;6.80;99.90;;;;;;4992694;28;20462;-72
2022/02/09 06:22:43;;;;;;;6.07;2.50;;;6.80;99.90;;;;;;4992539;28;20836;-72
2022/02/09 06:25:09;;;;;;;2.70;2.07;;;6.80;99.90;;;;;;4992696;28;20698;-74
2022/02/09 06:27:35;;;;;;;2.70;2.33;;;6.80;99.90;;;;;;4992716;28;20278;-73
2022/02/09 06:30:01;;;;;;;4.60;2.20;;;6.80;99.90;;;;;;4986374;28;20599;-72
2022/02/09 06:32:27;;;;;;;4.40;2.67;;;6.90;99.90;;;;;;4973245;28;20712;-73
2022/02/09 06:34:53;;;;;;;3.03;2.80;;;6.90;99.90;;;;;;4972280;28;20176;-71
2022/02/09 06:39:54;;;;;;;5.77;2.97;;;6.90;99.90;;;;;;4973264;28;20181;-70
2022/02/09 06:42:23;;;;;;;4.30;2.70;;;6.90;99.90;;;;;;4972915;28;20525;-72
2022/02/09 06:44:50;;;;;;;3.60;2.30;;;7.00;99.90;;;;;;4973017;28;20420;-71
2022/02/09 06:47:21;;;;;;;3.63;2.27;;;7.00;99.90;;;;;;4973177;28;20414;-71
2022/02/09 06:49:54;;;;;;;1.90;1.50;;;7.00;99.90;;;;;;4973076;28;20417;-71
2022/02/09 06:52:19;;;;;;;3.63;1.80;;;7.00;99.90;;;;;;4972869;28;20441;-71
2022/02/09 06:55:05;;;;;;;6.67;1.73;;;7.10;99.90;;;;;;4972776;28;20804;-70
2022/02/09 06:57:45;;;;;;;3.73;2.10;;;7.10;99.90;;;;;;4972511;28;20722;-71
2022/02/09 07:00:11;;;;;;;4.73;2.07;;;7.10;99.90;;;;;;4972879;28;20418;-69
2022/02/09 07:02:40;;;;;;;3.57;2.40;;;7.10;99.90;;;;;;4961256;28;21012;-70
2022/02/09 07:05:07;;;;;;;4.23;2.50;;;7.20;99.90;;;;;;4962525;28;20427;-71
2022/02/09 07:07:32;;;;;;;4.90;2.73;;;7.20;99.90;;;;;;4963248;28;20418;-71
2022/02/09 07:09:58;;;;;;;2.63;2.43;;;7.30;99.90;;;;;;4970102;28;20434;-72
2022/02/09 07:12:23;;;;;;;3.97;2.23;;;7.30;99.90;;;;;;4972515;28;20204;-71
2022/02/09 07:14:49;;;;;;;7.17;1.90;;;7.40;99.90;;;;;;4972410;28;20178;-71
2022/02/09 07:17:15;;;;;;;6.07;2.33;;;7.40;99.90;;;;;;4972864;28;20205;-71
2022/02/09 07:19:43;;;;;;;3.20;2.03;;;7.40;99.90;;;;;;4970151;28;20461;-69
2022/02/09 07:22:13;;;;;;;5.07;1.80;;;7.40;99.90;;;;;;4970404;28;20221;-71
2022/02/09 07:24:38;;;;;;;4.10;2.40;;;7.40;99.90;;;;;;4969738;28;20417;-71
2022/02/09 07:27:26;;;;;;;3.10;2.50;;;7.30;99.90;;;;;;4972447;28;20806;-71
2022/02/09 07:29:52;;;;;;;3.00;1.60;;;7.30;99.90;;;;;;4972263;28;20198;-71
2022/02/09 07:32:17;;;;;;;3.70;1.50;;;7.30;99.90;;;;;;4972418;28;20925;-72
2022/02/09 07:34:43;;;;;;;3.37;1.80;;;7.50;99.90;;;;;;4972036;28;20266;-70
2022/02/09 07:37:08;;;;;;;5.73;1.60;;;8.70;99.90;;;;;;4972635;28;20677;-71
2022/02/09 07:39:35;;;;;;;6.07;1.73;;;10.30;99.90;;;;;;4972277;28;20179;-71
2022/02/09 07:42:08;;;;;;;4.73;1.67;;;11.80;99.90;;;;;;4972055;28;20653;-72
2022/02/09 07:44:55;;;;;;;3.17;1.47;;;13.40;99.90;;;;;;4972044;28;20547;-71
2022/02/09 07:55:18;;;;;;;4.07;2.13;;;17.40;99.90;;;;;;4972577;28;20423;-72
2022/02/09 07:57:43;;;;;;;6.33;2.90;;;18.00;99.90;;;;;;4972085;28;20419;-72
2022/02/09 08:00:13;;;;;;;7.27;2.50;;;18.30;99.90;;;;;;4972275;28;20176;-74
2022/02/09 08:02:38;;;;;;;1.97;1.43;;;18.00;99.90;;;;;;4971594;28;20219;-72
2022/02/09 08:05:04;;;;;;;6.60;1.90;;;18.40;99.90;;;;;;4972332;28;20993;-72
2022/02/09 08:07:30;;;;;;;4.03;2.30;;;18.40;99.90;;;;;;4972200;28;20202;-72
2022/02/09 08:09:57;;;;;;;4.47;2.17;;;18.50;99.90;;;;;;4972077;28;20184;-72
2022/02/09 08:20:23;;;;;;;5.93;2.13;;;18.50;99.90;;;;;;4972202;28;20668;-71
2022/02/09 08:23:49;;;;;;;3.50;1.90;;;18.20;99.90;;;;;;4971890;28;20467;-72
2022/02/09 08:34:19;;;;;;;10.27;2.10;;;15.50;99.90;;;;;;4953821;28;20434;-74
2022/02/09 08:36:44;;;;;;;3.50;2.33;;;14.70;99.90;;;;;;4971451;28;20510;-71
2022/02/09 08:39:10;;;;;;;2.80;2.03;;;14.20;99.90;;;;;;4972034;28;20184;-71
2022/02/09 08:41:36;;;;;;;5.20;2.37;;;13.90;99.90;;;;;;4972226;28;20311;-72
2022/02/09 08:44:02;;;;;;;4.00;2.50;;;13.70;99.90;;;;;;4975219;28;20176;-72
2022/02/09 08:46:28;;;;;;;2.47;2.00;;;13.50;99.90;;;;;;4975344;28;20391;-72
2022/02/09 08:48:54;;;;;;;3.93;2.03;;;13.50;99.90;;;;;;4975273;28;20415;-71
2022/02/09 08:51:22;;;;;;;4.10;1.83;;;13.10;99.90;;;;;;4974958;28;20204;-72
2022/02/09 08:53:48;;;;;;;4.90;2.40;;;12.70;99.90;;;;;;4975030;28;20172;-72
2022/02/09 08:56:13;;;;;;;2.90;2.33;;;12.60;99.90;;;;;;4975483;28;20408;-72
2022/02/09 08:58:40;;;;;;;3.57;2.30;;;12.30;99.90;;;;;;4974922;28;20446;-71
2022/02/09 09:01:10;;;;;;;6.27;2.50;;;12.30;99.90;;;;;;4974821;28;20195;-71
2022/02/09 09:03:51;;;;;;;6.40;2.10;;;12.00;99.90;;;;;;4974674;28;20434;-70
2022/02/09 09:06:21;;;;;;;2.30;1.47;;;12.20;99.90;;;;;;4975364;28;20935;-71
2022/02/09 09:11:43;;;;;;;7.70;2.27;;;12.60;99.90;;;;;;4975071;28;20526;-70
2022/02/09 09:17:23;;;;;;;2.63;1.50;;;13.00;99.90;;;;;;4975093;28;20408;-70
2022/02/09 09:31:13;;;;;;;4.10;1.60;;;13.70;99.90;;;;;;4974890;28;20456;-71
2022/02/09 09:58:24;;;;;;;1.53;1.17;;;14.90;99.90;;;;;;4974218;28;20414;-71
2022/02/09 10:33:59;;;;;;;15.43;5.60;;;15.60;99.90;;;;;;4973755;28;20477;-71
2022/02/09 10:36:25;;;;;;;18.10;4.70;;;15.70;99.90;;;;;;4973366;28;20416;-71
2022/02/09 10:39:08;;;;;;;12.03;4.63;;;15.70;99.90;;;;;;4973479;28;20502;-71
2022/02/09 10:41:40;;;;;;;12.37;3.40;;;15.60;99.90;;;;;;4972971;28;20813;-71
2022/02/09 10:44:14;;;;;;;9.73;3.83;;;15.60;99.90;;;;;;4973252;28;20413;-71
2022/02/09 10:46:48;;;;;;;12.90;4.23;;;15.50;99.90;;;;;;4973489;28;20462;-71
2022/02/09 10:49:16;;;;;;;9.57;3.40;;;15.90;99.90;;;;;;4972645;28;20459;-72
2022/02/09 10:51:48;;;;;;;14.60;5.97;;;16.20;99.90;;;;;;4972591;28;20450;-71
2022/02/09 10:54:19;;;;;;;6.37;3.10;;;15.80;99.90;;;;;;4972872;28;20430;-70
2022/02/09 10:56:51;;;;;;;8.70;3.40;;;15.70;99.90;;;;;;4973267;28;20779;-72
2022/02/09 10:59:21;;;;;;;9.67;3.63;;;15.70;99.90;;;;;;4972872;28;20988;-72
2022/02/09 11:01:47;;;;;;;6.93;3.50;;;16.00;99.90;;;;;;4972766;28;20459;-70
2022/02/09 11:04:13;;;;;;;7.43;2.97;;;16.30;99.90;;;;;;4972356;28;20427;-72
2022/02/09 11:06:41;;;;;;;4.70;3.00;;;16.30;99.90;;;;;;4972934;28;20653;-71
2022/02/09 11:09:08;;;;;;;7.97;3.90;;;16.40;99.90;;;;;;4972805;28;20459;-72
2022/02/09 11:11:39;;;;;;;6.00;4.03;;;16.30;99.90;;;;;;4972623;28;20441;-72
2022/02/09 11:14:15;;;;;;;5.30;3.60;;;16.40;99.90;;;;;;4972610;28;20771;-71
2022/02/09 11:16:46;;;;;;;5.17;3.30;;;16.40;99.90;;;;;;4972771;28;20797;-72
2022/02/09 11:19:15;;;;;;;13.17;4.47;;;16.40;99.90;;;;;;4972929;28;20411;-73
2022/02/09 11:21:44;;;;;;;9.10;3.63;;;16.20;99.90;;;;;;4972504;28;20455;-71
2022/02/09 11:24:24;;;;;;;13.40;3.93;;;16.20;99.90;;;;;;4972529;28;20418;-73
2022/02/09 11:32:21;;;;;;;10.20;3.67;;;16.00;99.90;;;;;;4972459;28;20978;-72
2022/02/09 11:34:54;;;;;;;5.90;2.73;;;16.00;99.90;;;;;;4972345;28;20415;-70
2022/02/09 11:37:30;;;;;;;10.13;3.20;;;16.00;99.90;;;;;;4972389;28;20545;-72
2022/02/09 11:39:59;;;;;;;15.37;3.37;;;16.00;99.90;;;;;;4972505;28;20438;-71
2022/02/09 11:42:37;;;;;;;11.93;3.20;;;15.70;99.90;;;;;;4972090;28;21049;-72
2022/02/09 11:45:23;;;;;;;16.17;3.30;;;15.80;99.90;;;;;;4972273;28;20418;-72
2022/02/09 11:58:48;;;;;;;7.03;3.80;;;14.90;99.90;;;;;;4972161;28;20439;-72
2022/02/09 12:01:51;;;;;;;4.73;2.63;;;15.20;99.90;;;;;;4972896;28;20974;-72
2022/02/09 12:10:11;;;;;;;5.07;2.50;;;14.70;99.90;;;;;;4972372;28;20446;-70
2022/02/09 12:13:01;;;;;;;6.00;3.40;;;14.60;99.90;;;;;;4972717;28;20443;-70
2022/02/09 12:15:52;;;;;;;9.90;3.50;;;14.90;99.90;;;;;;4971224;28;20438;-69
2022/02/09 12:18:27;;;;;;;7.93;3.00;;;15.00;99.90;;;;;;4976575;28;20742;-69
2022/02/09 12:20:59;;;;;;;5.50;2.37;;;14.80;99.90;;;;;;4976325;28;20430;-69
2022/02/09 12:23:36;;;;;;;8.43;2.90;;;14.60;99.90;;;;;;4975864;28;20478;-69
2022/02/09 12:26:08;;;;;;;6.30;3.10;;;14.70;99.90;;;;;;4977739;28;20411;-69
2022/02/09 12:28:38;;;;;;;6.60;3.10;;;14.70;99.90;;;;;;4975715;28;20423;-69
2022/02/09 12:31:09;;;;;;;7.03;3.00;;;14.50;99.90;;;;;;4976140;28;20482;-69
2022/02/09 12:33:44;;;;;;;5.20;2.70;;;14.50;99.90;;;;;;4975563;28;20423;-69
2022/02/09 12:36:17;;;;;;;7.00;2.73;;;14.60;99.90;;;;;;4976244;28;20411;-71
2022/02/09 12:38:45;;;;;;;8.47;2.77;;;14.70;99.90;;;;;;4976202;28;20506;-71
2022/02/09 12:41:22;;;;;;;7.60;2.60;;;14.50;99.90;;;;;;4976352;28;20434;-71
2022/02/09 12:44:03;;;;;;;6.10;3.07;;;14.50;99.90;;;;;;4975457;28;20426;-71
2022/02/09 12:46:31;;;;;;;10.27;2.80;;;14.30;99.90;;;;;;4975899;28;20472;-71
2022/02/09 12:49:12;;;;;;;5.43;2.60;;;14.20;99.90;;;;;;4976121;28;20407;-71
2022/02/09 12:51:39;;;;;;;5.93;2.50;;;14.20;99.90;;;;;;4974749;28;20964;-71
2022/02/09 12:54:06;;;;;;;8.60;2.67;;;14.30;99.90;;;;;;4976481;28;20483;-71
2022/02/09 12:56:44;;;;;;;12.13;2.63;;;14.30;99.90;;;;;;4976015;28;20531;-71
2022/02/09 12:59:14;;;;;;;14.90;2.93;;;14.30;99.90;;;;;;4975265;28;20450;-72
2022/02/09 13:01:55;;;;;;;5.83;1.83;;;14.20;99.90;;;;;;4975426;28;20463;-71
2022/02/09 13:04:35;;;;;;;4.40;2.40;;;14.20;99.90;;;;;;4975566;28;20502;-71
2022/02/09 13:07:07;;;;;;;3.00;2.40;;;14.20;99.90;;;;;;4975422;28;20419;-70
2022/02/09 13:09:33;;;;;;;9.93;2.30;;;14.30;99.90;;;;;;4976521;28;20423;-71
2022/02/09 13:11:58;;;;;;;6.50;2.63;;;14.20;99.90;;;;;;4975685;28;20439;-70
2022/02/09 13:14:38;;;;;;;4.87;2.20;;;14.30;99.90;;;;;;4975248;28;20524;-71
2022/02/09 13:22:43;;;;;;;6.53;2.53;;;14.20;99.90;;;;;;4974599;28;20473;-71
2022/02/09 14:07:02;;;;;;;2.13;1.83;;;13.70;99.90;;;;;;4973381;28;20459;-70
2022/02/09 14:15:24;;;;;;;6.40;2.07;;;13.90;99.90;;;;;;4972987;28;20522;-69
2022/02/09 14:32:01;;;;;;;4.40;1.83;;;13.90;99.90;;;;;;4967542;28;20501;-70
2022/02/09 14:49:30;;;;;;;5.17;2.63;;;13.60;99.90;;;;;;4953611;28;20467;-71
2022/02/09 14:53:45;;;;;;;5.30;2.00;;;13.60;99.90;;;;;;4953039;28;20486;-70
2022/02/09 14:56:22;;;;;;;7.50;1.70;;;13.50;99.90;;;;;;4953585;28;20522;-70
2022/02/09 14:58:55;;;;;;;3.97;1.30;;;13.60;99.90;;;;;;4953305;28;20559;-70
2022/02/09 15:01:33;;;;;;;3.60;1.80;;;13.50;99.90;;;;;;4952995;28;20515;-71
2022/02/09 15:07:00;;;;;;;3.97;1.73;;;13.50;99.90;;;;;;4953294;29;20475;-70
2022/02/09 15:09:41;;;;;;;3.47;2.00;;;13.50;99.90;;;;;;4952980;28;20459;-70
2022/02/09 15:20:37;;;;;;;2.27;1.30;;;13.20;99.90;;;;;;4972399;28;20469;-70
2022/02/09 15:22:57;;;;;;;2.70;1.50;;;13.20;99.90;;;;;;4972069;28;21030;-70
2022/02/09 15:25:23;;;;;;;5.03;1.70;;;13.20;99.90;;;;;;4971875;28;20455;-70
2022/02/09 15:27:53;;;;;;;3.20;1.80;;;13.10;99.90;;;;;;4972247;28;20204;-70
2022/02/09 15:30:19;;;;;;;7.10;2.03;;;13.10;99.90;;;;;;4971902;28;20204;-70
2022/02/09 15:32:50;;;;;;;1.50;1.40;;;13.10;99.90;;;;;;4971824;28;20470;-71
2022/02/09 15:35:30;;;;;;;1.50;1.40;;;13.00;99.90;;;;;;4972111;28;20653;-70
2022/02/09 15:40:39;;;;;;;2.93;1.80;;;12.90;99.90;;;;;;4971493;28;20470;-70
2022/02/09 16:07:36;;;;;;;6.23;2.17;;;12.30;99.90;;;;;;4956709;28;20412;-70
2022/02/09 16:09:44;;;;;;;9.40;2.00;;;12.20;99.90;;;;;;4956430;28;20431;-70
2022/02/09 16:18:31;;;;;;;4.60;2.10;;;11.80;99.90;;;;;;4956547;28;20427;-70
2022/02/09 16:23:39;;;;;;;2.40;1.90;;;11.60;99.90;;;;;;4896693;29;20501;-70
2022/02/09 16:45:04;;;;;;;4.27;2.47;;;10.20;99.90;;;;;;4972608;28;20407;-70
2022/02/09 16:47:53;;;;;;;11.90;2.43;;;10.00;99.90;;;;;;4975679;28;20497;-70
2022/02/09 16:50:25;;;;;;;4.63;2.17;;;9.80;99.90;;;;;;4975394;28;20417;-70
2022/02/09 16:53:21;;;;;;;6.33;2.00;;;9.70;99.90;;;;;;4974962;28;20442;-70
2022/02/09 17:19:40;;;;;;;3.57;2.03;;;8.40;99.90;;;;;;4955357;29;20441;-72
2022/02/09 17:22:06;;;;;;;4.27;2.30;;;8.30;99.90;;;;;;4954416;29;21016;-73
2022/02/09 17:24:32;;;;;;;4.43;2.57;;;8.20;99.90;;;;;;4963525;28;20189;-72
2022/02/09 17:26:57;;;;;;;3.07;2.47;;;8.20;99.90;;;;;;4973501;28;20236;-72
2022/02/09 17:29:43;;;;;;;6.17;2.10;;;8.00;99.90;;;;;;4973847;28;20265;-72
2022/02/09 17:32:21;;;;;;;6.73;1.50;;;7.80;99.90;;;;;;4974473;28;20222;-72
2022/02/09 17:35:02;;;;;;;14.93;2.43;;;7.80;99.90;;;;;;4974274;28;20417;-73
2022/02/09 17:53:36;;;;;;;4.83;2.23;;;7.20;99.90;;;;;;4971359;28;20575;-73
2022/02/09 17:56:07;;;;;;;2.50;1.40;;;7.10;99.90;;;;;;4970059;28;20429;-70
2022/02/09 17:58:45;;;;;;;3.80;2.50;;;7.00;99.90;;;;;;4972333;28;20472;-72
2022/02/09 18:01:11;;;;;;;7.13;2.50;;;6.90;99.90;;;;;;4973159;28;20996;-73
2022/02/09 18:03:36;;;;;;;4.53;1.80;;;6.90;99.90;;;;;;4973297;28;20485;-72
2022/02/09 18:06:28;;;;;;;7.73;1.70;;;6.90;99.90;;;;;;4974065;28;20180;-72
2022/02/09 18:09:12;;;;;;;4.80;2.67;;;6.80;99.90;;;;;;4973735;28;20214;-72
2022/02/09 18:11:58;;;;;;;5.73;2.47;;;6.80;99.90;;;;;;4973275;28;20447;-72
2022/02/09 18:15:02;;;;;;;4.23;2.13;;;6.70;99.90;;;;;;4971585;28;20437;-72
2022/02/09 18:26:03;;;;;;;3.20;1.63;;;6.40;99.90;;;;;;4973394;28;20456;-72
2022/02/09 18:28:56;;;;;;;11.23;3.10;;;6.30;99.90;;;;;;4973574;28;20432;-73
2022/02/09 18:31:10;;;;;;;8.10;3.37;;;6.30;99.90;;;;;;4973236;28;20488;-73
2022/02/09 18:33:50;;;;;;;5.67;3.20;;;6.10;99.90;;;;;;4972022;28;20422;-70
2022/02/09 18:39:33;;;;;;;8.50;3.10;;;6.00;99.90;;;;;;4974852;28;20421;-72
2022/02/09 19:05:26;;;;;;;4.80;2.40;;;5.40;99.90;;;;;;4971673;28;20983;-72
2022/02/09 19:08:13;;;;;;;4.50;2.20;;;5.30;99.90;;;;;;4972608;28;20809;-72
2022/02/09 19:31:48;;;;;;;9.33;2.70;;;4.80;99.90;;;;;;4972142;28;20510;-72
2022/02/09 19:50:13;;;;;;;8.70;2.90;;;4.50;99.90;;;;;;4972257;28;20930;-72
2022/02/09 19:53:10;;;;;;;3.80;2.20;;;4.50;99.90;;;;;;4971976;28;20462;-72
2022/02/09 19:55:38;;;;;;;7.00;2.53;;;4.40;99.90;;;;;;4971887;28;21200;-72
2022/02/09 19:58:05;;;;;;;3.63;1.80;;;4.40;99.90;;;;;;4972322;28;20516;-72
2022/02/09 20:00:34;;;;;;;3.10;1.97;;;4.30;99.90;;;;;;4971881;28;20987;-72
2022/02/09 20:03:01;;;;;;;6.63;2.20;;;4.30;99.90;;;;;;4971012;28;20483;-72
2022/02/09 20:05:27;;;;;;;2.53;2.20;;;4.40;99.90;;;;;;4972039;28;20482;-71
2022/02/09 20:07:53;;;;;;;3.37;1.73;;;4.30;99.90;;;;;;4972257;28;20480;-72
2022/02/09 20:10:19;;;;;;;3.93;2.30;;;4.20;99.90;;;;;;4972123;28;20818;-73
2022/02/09 20:12:45;;;;;;;2.23;2.03;;;4.20;99.90;;;;;;4971859;28;20508;-71
2022/02/09 20:15:12;;;;;;;7.60;3.80;;;4.20;99.90;;;;;;4972271;28;20528;-73
2022/02/09 20:17:42;;;;;;;5.00;2.40;;;4.10;99.90;;;;;;4971682;28;21037;-72
2022/02/09 20:20:11;;;;;;;3.37;2.43;;;4.10;99.90;;;;;;4971999;28;20456;-73
2022/02/09 20:22:37;;;;;;;10.10;3.00;;;4.00;99.90;;;;;;4971419;28;20531;-72
2022/02/09 20:25:04;;;;;;;3.23;1.90;;;4.00;99.90;;;;;;4972077;28;20473;-74
2022/02/09 20:27:33;;;;;;;4.07;2.70;;;3.90;99.90;;;;;;4972013;28;20219;-72
2022/02/09 20:29:59;;;;;;;5.37;2.20;;;3.90;99.90;;;;;;4971906;28;20443;-73
2022/02/09 20:32:30;;;;;;;3.87;2.50;;;3.80;99.90;;;;;;4971502;28;20486;-71
2022/02/09 20:34:58;;;;;;;7.60;2.17;;;3.80;99.90;;;;;;4971889;28;20206;-72
2022/02/09 20:37:26;;;;;;;5.13;2.33;;;3.80;99.90;;;;;;4972204;28;20432;-73
2022/02/09 20:40:00;;;;;;;2.40;1.67;;;3.80;99.90;;;;;;4975453;28;20537;-75
2022/02/09 20:42:26;;;;;;;6.17;2.03;;;3.80;99.90;;;;;;4975124;28;20956;-72
2022/02/09 20:45:00;;;;;;;3.17;1.90;;;3.70;99.90;;;;;;4974026;28;20424;-74
2022/02/09 20:47:29;;;;;;;2.13;1.73;;;3.70;99.90;;;;;;4973589;28;20563;-74
2022/02/09 20:49:54;;;;;;;6.33;1.97;;;3.70;99.90;;;;;;4975226;28;20456;-71
2022/02/09 20:52:20;;;;;;;1.90;1.67;;;3.60;99.90;;;;;;4975185;28;20965;-72
2022/02/09 20:54:46;;;;;;;6.43;2.73;;;3.60;99.90;;;;;;4974919;28;20210;-72
2022/02/09 20:57:12;;;;;;;6.27;3.30;;;3.60;99.90;;;;;;4975095;28;20219;-72
2022/02/09 20:59:43;;;;;;;3.80;2.30;;;3.60;99.90;;;;;;4974760;28;20213;-71
2022/02/09 21:02:30;;;;;;;5.27;2.70;;;3.50;99.90;;;;;;4974602;28;20512;-74
2022/02/09 21:05:07;;;;;;;8.73;2.50;;;3.50;99.90;;;;;;4975070;28;20438;-71
2022/02/09 21:07:48;;;;;;;6.33;2.70;;;3.50;99.90;;;;;;4974771;28;20502;-73
2022/02/09 21:10:35;;;;;;;2.60;2.13;;;3.40;99.90;;;;;;4974797;28;20956;-72
2022/02/09 21:13:06;;;;;;;2.40;2.30;;;3.40;99.90;;;;;;4974722;28;20476;-72
2022/02/09 21:24:29;;;;;;;21.43;2.90;;;3.30;99.90;;;;;;4953050;28;20491;-74
2022/02/09 21:44:13;;;;;;;5.63;2.13;;;3.00;99.90;;;;;;4973855;28;20912;-73
2022/02/09 21:56:19;;;;;;;7.40;3.07;;;2.90;99.90;;;;;;4974589;28;20450;-72
2022/02/09 22:06:05;;;;;;;4.20;2.67;;;2.80;99.90;;;;;;4973657;28;21130;-71
2022/02/09 22:16:23;;;;;;;4.60;2.00;;;2.80;99.90;;;;;;4973406;28;20487;-72
2022/02/09 22:24:09;;;;;;;4.37;2.10;;;2.60;99.90;;;;;;4973080;28;20490;-72
2022/02/09 22:55:18;;;;;;;4.17;2.40;;;2.20;99.90;;;;;;4972441;28;20400;-73
2022/02/09 22:57:51;;;;;;;3.97;2.33;;;2.20;99.90;;;;;;4972097;28;20835;-72
2022/02/09 23:03:14;;;;;;;4.73;2.37;;;2.10;99.90;;;;;;4972980;28;20964;-73
2022/02/09 23:05:54;;;;;;;4.70;2.67;;;2.10;99.90;;;;;;4973015;28;20591;-72
2022/02/09 23:13:58;;;;;;;12.87;3.00;;;2.10;99.90;;;;;;4972651;28;20416;-72
2022/02/09 23:55:23;;;;;;;4.63;2.73;;;1.60;99.90;;;;;;4972497;28;20469;-72
